Terminal Aerodrome Forecast
Issued by NWS

Home | Current Version | Previous Version | Text Only | Print | Product List | Glossary On
Versions: 1 2 3 4 5 6 7 8 9 10 11 12 13
000
FTUS45 KRIW 222300
TAFCPR
TAF
KCPR 222327Z 2300/2324 21014G24KT P6SM VCSH BKN080
     FM230400 24008KT P6SM BKN080
     FM231200 23012G20KT P6SM SCT080
     FM232000 29011KT P6SM SCT060=

USA.gov is the U.S. government's official web portal to all federal, state and local government web resources and services.